Avalon Express — WDD7919 — position and weather

sailwx.info

Track history (hours):
 
Tides and Currents Weather Stations Pressure Air Temp Water Temp Dewpoint Dewpoint Depression Visibility Wind Speed Wind Dir Waves Ship Positions

Avalon Express

Owner: RGWT INC, San Pedro, CA. More information available from US FCC via Universal Licensing System and Coast Guard Vessel Documentation Center.

Last reported at 2017-Sep-19 16:22 UTC. Time now 2017-Sep-19 16:55 UTC.
Position N 33°36' W 118°17'.

Type: High speed craft. MMSI: 367192940.

Date/timePositionNaut miles runAvg speedWind from/ knotsBaromVisibWave heightAir tempDewpointWater temp
2017-Sep-19 16:22N 33°36' W 118°17'9 6.8
2017-Sep-19 15:03N 33°45' W 118°16'0 0.0
2017-Sep-19 15:00N 33°45' W 118°16'0 0.1
2017-Sep-19 14:03N 33°45' W 118°16'0 0.0
2017-Sep-19 13:46N 33°45' W 118°16'0 0.0
2017-Sep-19 02:50N 33°45' W 118°16'0 0.0
2017-Sep-19 02:20N 33°45' W 118°16'0 0.0
2017-Sep-19 01:58N 33°45' W 118°16'2 3.8
2017-Sep-19 01:29N 33°43' W 118°16'2214.0
2017-Sep-18 23:54N 33°21' W 118°19'1611.1
2017-Sep-18 22:29N 33°37' W 118°20'816.4
2017-Sep-18 22:00N 33°44' W 118°17'0 0.9
2017-Sep-18 21:30N 33°45' W 118°16'0 0.0
2017-Sep-18 20:59N 33°45' W 118°16'0 0.0
2017-Sep-18 20:29N 33°45' W 118°16'0 0.0
2017-Sep-18 19:56N 33°45' W 118°16'0 0.0
2017-Sep-18 19:28N 33°45' W 118°16'4 9.2
2017-Sep-18 19:00N 33°41' W 118°17'1711.1
2017-Sep-18 17:30N 33°25' W 118°22'5 8.1
2017-Sep-18 16:57N 33°21' W 118°19'1423.8
2017-Sep-18 16:21N 33°35' W 118°16'824.1
2017-Sep-18 16:00N 33°43' W 118°16'2 1.2
2017-Sep-18 14:39N 33°45' W 118°16'0 0.1
2017-Sep-18 13:53N 33°45' W 118°16'0 0.0
2017-Sep-18 13:24N 33°45' W 118°16'0 0.0
2017-Sep-18 12:48N 33°45' W 118°16'0 0.0
2017-Sep-18 01:59N 33°45' W 118°16'0 0.2
2017-Sep-18 01:20N 33°45' W 118°16'0 0.0
2017-Sep-18 00:39N 33°45' W 118°16'1 3.3
2017-Sep-18 00:19N 33°44' W 118°16'514.3
2017-Sep-17 23:58N 33°39' W 118°17'1 0.7
2017-Sep-17 22:00N 33°38' W 118°19'713.3
2017-Sep-17 21:29N 33°45' W 118°16'0 0.0
2017-Sep-17 21:00N 33°45' W 118°16'0 0.2
2017-Sep-17 20:30N 33°45' W 118°16'0 0.1
2017-Sep-17 19:36N 33°45' W 118°16'0 0.0
2017-Sep-17 19:18N 33°45' W 118°16'0 0.0
2017-Sep-17 18:58N 33°45' W 118°16'0 0.0
2017-Sep-17 18:28N 33°45' W 118°16'0 0.0
2017-Sep-17 17:52N 33°45' W 118°16'0 0.0
2017-Sep-17 17:26N 33°45' W 118°16'0 0.0
2017-Sep-17 16:56N 33°45' W 118°16'0 0.0
2017-Sep-17 14:52N 33°45' W 118°16'0 0.0
2017-Sep-17 02:22N 33°45' W 118°16'0 0.3
2017-Sep-17 02:00N 33°45' W 118°16'0 0.0
2017-Sep-17 01:29N 33°45' W 118°16'1 2.0
2017-Sep-17 00:58N 33°44' W 118°16'4 8.8
2017-Sep-17 00:30N 33°46' W 118°12'5 9.3
2017-Sep-17 00:00N 33°41' W 118°11'21 3.4
2017-Sep-16 17:40N 33°21' W 118°19'1425.7
2017-Sep-16 17:07N 33°35' W 118°17'425.6
2017-Sep-16 16:58N 33°39' W 118°16'612.6
2017-Sep-16 16:28N 33°45' W 118°16'0 0.0
2017-Sep-16 16:00N 33°45' W 118°16'0 0.0
2017-Sep-16 02:37N 33°45' W 118°16'0 0.0
2017-Sep-16 02:28N 33°45' W 118°16'0 0.0
2017-Sep-16 02:00N 33°45' W 118°16'2 3.0
2017-Sep-16 01:30N 33°43' W 118°16'1924.2
2017-Sep-16 00:43N 33°25' W 118°19'4 3.4
2017-Sep-15 23:39N 33°21' W 118°19'1425.7
2017-Sep-15 23:06N 33°35' W 118°16'326.3
2017-Sep-15 23:01N 33°37' W 118°15'815.0
2017-Sep-15 22:30N 33°45' W 118°16'0 0.0
2017-Sep-15 21:57N 33°45' W 118°16'0 0.0
2017-Sep-15 21:29N 33°45' W 118°16'0 0.0
2017-Sep-15 21:00N 33°45' W 118°16'3 5.6
2017-Sep-15 20:31N 33°42' W 118°15'2125.7
2017-Sep-15 19:42N 33°22' W 118°18'1 1.2
2017-Sep-15 18:55N 33°21' W 118°19'1725.0
2017-Sep-15 18:14N 33°38' W 118°16'521.5
2017-Sep-15 18:00N 33°43' W 118°16'2 3.9
2017-Sep-15 17:28N 33°45' W 118°16'0 0.2
2017-Sep-15 16:54N 33°45' W 118°16'0 0.0
2017-Sep-15 16:24N 33°45' W 118°16'0 0.0
2017-Sep-15 16:00N 33°45' W 118°16'0 0.0
2017-Sep-15 15:17N 33°45' W 118°16'0 0.0
2017-Sep-15 14:57N 33°45' W 118°16'0 0.1
2017-Sep-15 14:24N 33°45' W 118°16'0 0.1
2017-Sep-15 13:52N 33°45' W 118°16'  
2017-Sep-13 03:16N 33°45' W 118°16'0 0.4
2017-Sep-13 03:00N 33°45' W 118°16'0 0.0
2017-Sep-13 02:30N 33°45' W 118°16'0 0.0
2017-Sep-13 02:00N 33°45' W 118°16'2 4.2
2017-Sep-13 01:31N 33°43' W 118°16'1423.9
2017-Sep-13 00:56N 33°29' W 118°17'911.8
2017-Sep-13 00:12N 33°21' W 118°19'0 1.4
2017-Sep-12 23:56N 33°21' W 118°19'8 8.0
2017-Sep-12 22:55N 33°27' W 118°26'1326.4
2017-Sep-12 22:26N 33°38' W 118°18'614.9
2017-Sep-12 22:00N 33°44' W 118°17'0 1.0
2017-Sep-12 21:30N 33°45' W 118°16'0 0.0
2017-Sep-12 21:00N 33°45' W 118°16'0 0.0
2017-Sep-12 20:30N 33°45' W 118°16'0 0.0
2017-Sep-12 20:00N 33°45' W 118°16'0 0.0
2017-Sep-12 19:30N 33°45' W 118°16'4 8.5
2017-Sep-12 19:01N 33°41' W 118°16'1426.3
2017-Sep-12 18:28N 33°30' W 118°27'4 4.3
2017-Sep-12 17:36N 33°26' W 118°26'426.1
2017-Sep-12 17:26N 33°24' W 118°21'3 6.5
2017-Sep-12 16:55N 33°21' W 118°19'1025.0
2017-Sep-12 16:30N 33°31' W 118°17'1224.8
2017-Sep-12 16:00N 33°43' W 118°16'2 3.3
2017-Sep-12 15:30N 33°45' W 118°16'0 0.0
2017-Sep-12 15:00N 33°45' W 118°16'0 0.2
2017-Sep-12 14:30N 33°45' W 118°16'0 0.0
2017-Sep-12 14:00N 33°45' W 118°16'0 0.0
2017-Sep-12 13:29N 33°45' W 118°16'0 0.0
2017-Sep-12 13:00N 33°45' W 118°16'0 0.0
2017-Sep-11 00:15N 33°45' W 118°16'0 0.3
2017-Sep-11 00:00N 33°45' W 118°16'0 0.0
2017-Sep-10 23:30N 33°45' W 118°16'2 3.0
2017-Sep-10 23:00N 33°43' W 118°16'1122.0
2017-Sep-10 22:31N 33°32' W 118°16'1223.8
2017-Sep-10 22:00N 33°21' W 118°19'0 0.1
2017-Sep-10 21:30N 33°21' W 118°19'4 7.9
2017-Sep-10 21:01N 33°24' W 118°18'1326.3
2017-Sep-10 20:31N 33°37' W 118°16'714.8
2017-Sep-10 20:00N 33°45' W 118°16'0 0.0
2017-Sep-10 19:30N 33°45' W 118°16'713.7
2017-Sep-10 19:01N 33°38' W 118°15'1326.0
2017-Sep-10 18:31N 33°26' W 118°18'510.1
2017-Sep-10 18:00N 33°21' W 118°19'612.3
2017-Sep-10 17:31N 33°27' W 118°18'1326.2
2017-Sep-10 17:00N 33°40' W 118°15'510.7
2017-Sep-10 16:30N 33°45' W 118°16'0 0.0
2017-Sep-10 16:01N 33°45' W 118°16'0 0.2
2017-Sep-10 15:30N 33°45' W 118°16'0 0.0
2017-Sep-10 15:00N 33°45' W 118°16'0 0.0
2017-Sep-10 14:00N 33°45' W 118°16'0 0.0
2017-Sep-09 20:27N 33°45' W 118°16'0 0.1
2017-Sep-09 20:00N 33°45' W 118°16'0 0.1
2017-Sep-09 19:30N 33°45' W 118°16'612.7
2017-Sep-09 19:00N 33°39' W 118°15'1326.0
2017-Sep-09 18:31N 33°26' W 118°18'510.4
2017-Sep-09 17:59N 33°21' W 118°19'4 7.3
2017-Sep-09 17:30N 33°24' W 118°19'1325.7
2017-Sep-09 17:00N 33°37' W 118°16'815.2
2017-Sep-09 16:29N 33°45' W 118°16'  
Track history (hours):
 
Tides and Currents Weather Stations Pressure Air Temp Water Temp Dewpoint Dewpoint Depression Visibility Wind Speed Wind Dir Waves Ship Positions

Avalon Express

Owner: RGWT INC, San Pedro, CA. More information available from US FCC via Universal Licensing System and Coast Guard Vessel Documentation Center.

Last reported at 2017-Sep-19 16:22 UTC. Time now 2017-Sep-19 16:55 UTC.
Position N 33°36' W 118°17'.

Type: High speed craft. MMSI: 367192940.

Date/timePositionNaut miles runAvg speedWind from/ knotsBaromVisibWave heightAir tempDewpointWater temp
2017-Sep-19 16:22N 33°36' W 118°17'9 6.8
2017-Sep-19 15:03N 33°45' W 118°16'0 0.0
2017-Sep-19 15:00N 33°45' W 118°16'0 0.1
2017-Sep-19 14:03N 33°45' W 118°16'0 0.0
2017-Sep-19 13:46N 33°45' W 118°16'0 0.0
2017-Sep-19 02:50N 33°45' W 118°16'0 0.0
2017-Sep-19 02:20N 33°45' W 118°16'0 0.0
2017-Sep-19 01:58N 33°45' W 118°16'2 3.8
2017-Sep-19 01:29N 33°43' W 118°16'2214.0
2017-Sep-18 23:54N 33°21' W 118°19'1611.1
2017-Sep-18 22:29N 33°37' W 118°20'816.4
2017-Sep-18 22:00N 33°44' W 118°17'0 0.9
2017-Sep-18 21:30N 33°45' W 118°16'0 0.0
2017-Sep-18 20:59N 33°45' W 118°16'0 0.0
2017-Sep-18 20:29N 33°45' W 118°16'0 0.0
2017-Sep-18 19:56N 33°45' W 118°16'0 0.0
2017-Sep-18 19:28N 33°45' W 118°16'4 9.2
2017-Sep-18 19:00N 33°41' W 118°17'1711.1
2017-Sep-18 17:30N 33°25' W 118°22'5 8.1
2017-Sep-18 16:57N 33°21' W 118°19'1423.8
2017-Sep-18 16:21N 33°35' W 118°16'824.1
2017-Sep-18 16:00N 33°43' W 118°16'2 1.2
2017-Sep-18 14:39N 33°45' W 118°16'0 0.1
2017-Sep-18 13:53N 33°45' W 118°16'0 0.0
2017-Sep-18 13:24N 33°45' W 118°16'0 0.0
2017-Sep-18 12:48N 33°45' W 118°16'0 0.0
2017-Sep-18 01:59N 33°45' W 118°16'0 0.2
2017-Sep-18 01:20N 33°45' W 118°16'0 0.0
2017-Sep-18 00:39N 33°45' W 118°16'1 3.3
2017-Sep-18 00:19N 33°44' W 118°16'514.3
2017-Sep-17 23:58N 33°39' W 118°17'1 0.7
2017-Sep-17 22:00N 33°38' W 118°19'713.3
2017-Sep-17 21:29N 33°45' W 118°16'0 0.0
2017-Sep-17 21:00N 33°45' W 118°16'0 0.2
2017-Sep-17 20:30N 33°45' W 118°16'0 0.1
2017-Sep-17 19:36N 33°45' W 118°16'0 0.0
2017-Sep-17 19:18N 33°45' W 118°16'0 0.0
2017-Sep-17 18:58N 33°45' W 118°16'0 0.0
2017-Sep-17 18:28N 33°45' W 118°16'0 0.0
2017-Sep-17 17:52N 33°45' W 118°16'0 0.0
2017-Sep-17 17:26N 33°45' W 118°16'0 0.0
2017-Sep-17 16:56N 33°45' W 118°16'0 0.0
2017-Sep-17 14:52N 33°45' W 118°16'0 0.0
2017-Sep-17 02:22N 33°45' W 118°16'0 0.3
2017-Sep-17 02:00N 33°45' W 118°16'0 0.0
2017-Sep-17 01:29N 33°45' W 118°16'1 2.0
2017-Sep-17 00:58N 33°44' W 118°16'4 8.8
2017-Sep-17 00:30N 33°46' W 118°12'5 9.3
2017-Sep-17 00:00N 33°41' W 118°11'21 3.4
2017-Sep-16 17:40N 33°21' W 118°19'1425.7
2017-Sep-16 17:07N 33°35' W 118°17'425.6
2017-Sep-16 16:58N 33°39' W 118°16'612.6
2017-Sep-16 16:28N 33°45' W 118°16'0 0.0
2017-Sep-16 16:00N 33°45' W 118°16'0 0.0
2017-Sep-16 02:37N 33°45' W 118°16'0 0.0
2017-Sep-16 02:28N 33°45' W 118°16'0 0.0
2017-Sep-16 02:00N 33°45' W 118°16'2 3.0
2017-Sep-16 01:30N 33°43' W 118°16'1924.2
2017-Sep-16 00:43N 33°25' W 118°19'4 3.4
2017-Sep-15 23:39N 33°21' W 118°19'1425.7
2017-Sep-15 23:06N 33°35' W 118°16'326.3
2017-Sep-15 23:01N 33°37' W 118°15'815.0
2017-Sep-15 22:30N 33°45' W 118°16'0 0.0
2017-Sep-15 21:57N 33°45' W 118°16'0 0.0
2017-Sep-15 21:29N 33°45' W 118°16'0 0.0
2017-Sep-15 21:00N 33°45' W 118°16'3 5.6
2017-Sep-15 20:31N 33°42' W 118°15'2125.7
2017-Sep-15 19:42N 33°22' W 118°18'1 1.2
2017-Sep-15 18:55N 33°21' W 118°19'1725.0
2017-Sep-15 18:14N 33°38' W 118°16'521.5
2017-Sep-15 18:00N 33°43' W 118°16'2 3.9
2017-Sep-15 17:28N 33°45' W 118°16'0 0.2
2017-Sep-15 16:54N 33°45' W 118°16'0 0.0
2017-Sep-15 16:24N 33°45' W 118°16'0 0.0
2017-Sep-15 16:00N 33°45' W 118°16'0 0.0
2017-Sep-15 15:17N 33°45' W 118°16'0 0.0
2017-Sep-15 14:57N 33°45' W 118°16'0 0.1
2017-Sep-15 14:24N 33°45' W 118°16'0 0.1
2017-Sep-15 13:52N 33°45' W 118°16'  
2017-Sep-13 03:16N 33°45' W 118°16'0 0.4
2017-Sep-13 03:00N 33°45' W 118°16'0 0.0
2017-Sep-13 02:30N 33°45' W 118°16'0 0.0
2017-Sep-13 02:00N 33°45' W 118°16'2 4.2
2017-Sep-13 01:31N 33°43' W 118°16'1423.9
2017-Sep-13 00:56N 33°29' W 118°17'911.8
2017-Sep-13 00:12N 33°21' W 118°19'0 1.4
2017-Sep-12 23:56N 33°21' W 118°19'8 8.0
2017-Sep-12 22:55N 33°27' W 118°26'1326.4
2017-Sep-12 22:26N 33°38' W 118°18'614.9
2017-Sep-12 22:00N 33°44' W 118°17'0 1.0
2017-Sep-12 21:30N 33°45' W 118°16'0 0.0
2017-Sep-12 21:00N 33°45' W 118°16'0 0.0
2017-Sep-12 20:30N 33°45' W 118°16'0 0.0
2017-Sep-12 20:00N 33°45' W 118°16'0 0.0
2017-Sep-12 19:30N 33°45' W 118°16'4 8.5
2017-Sep-12 19:01N 33°41' W 118°16'1426.3
2017-Sep-12 18:28N 33°30' W 118°27'4 4.3
2017-Sep-12 17:36N 33°26' W 118°26'426.1
2017-Sep-12 17:26N 33°24' W 118°21'3 6.5
2017-Sep-12 16:55N 33°21' W 118°19'1025.0
2017-Sep-12 16:30N 33°31' W 118°17'1224.8
2017-Sep-12 16:00N 33°43' W 118°16'2 3.3
2017-Sep-12 15:30N 33°45' W 118°16'0 0.0
2017-Sep-12 15:00N 33°45' W 118°16'0 0.2
2017-Sep-12 14:30N 33°45' W 118°16'0 0.0
2017-Sep-12 14:00N 33°45' W 118°16'0 0.0
2017-Sep-12 13:29N 33°45' W 118°16'0 0.0
2017-Sep-12 13:00N 33°45' W 118°16'0 0.0
2017-Sep-11 00:15N 33°45' W 118°16'0 0.3
2017-Sep-11 00:00N 33°45' W 118°16'0 0.0
2017-Sep-10 23:30N 33°45' W 118°16'2 3.0
2017-Sep-10 23:00N 33°43' W 118°16'1122.0
2017-Sep-10 22:31N 33°32' W 118°16'1223.8
2017-Sep-10 22:00N 33°21' W 118°19'0 0.1
2017-Sep-10 21:30N 33°21' W 118°19'4 7.9
2017-Sep-10 21:01N 33°24' W 118°18'1326.3
2017-Sep-10 20:31N 33°37' W 118°16'714.8
2017-Sep-10 20:00N 33°45' W 118°16'0 0.0
2017-Sep-10 19:30N 33°45' W 118°16'713.7
2017-Sep-10 19:01N 33°38' W 118°15'1326.0
2017-Sep-10 18:31N 33°26' W 118°18'510.1
2017-Sep-10 18:00N 33°21' W 118°19'612.3
2017-Sep-10 17:31N 33°27' W 118°18'1326.2
2017-Sep-10 17:00N 33°40' W 118°15'510.7
2017-Sep-10 16:30N 33°45' W 118°16'0 0.0
2017-Sep-10 16:01N 33°45' W 118°16'0 0.2
2017-Sep-10 15:30N 33°45' W 118°16'0 0.0
2017-Sep-10 15:00N 33°45' W 118°16'0 0.0
2017-Sep-10 14:00N 33°45' W 118°16'0 0.0
2017-Sep-09 20:27N 33°45' W 118°16'0 0.1
2017-Sep-09 20:00N 33°45' W 118°16'0 0.1
2017-Sep-09 19:30N 33°45' W 118°16'612.7
2017-Sep-09 19:00N 33°39' W 118°15'1326.0
2017-Sep-09 18:31N 33°26' W 118°18'510.4
2017-Sep-09 17:59N 33°21' W 118°19'4 7.3
2017-Sep-09 17:30N 33°24' W 118°19'1325.7
2017-Sep-09 17:00N 33°37' W 118°16'815.2
2017-Sep-09 16:29N 33°45' W 118°16'  

Dump ship's entire track history